This is the latest recevied weather packets stored in our database for station/object DG1UDO-13. If no packets are shown the sender has not sent any weather packets the latest 10 day(s).
| Time | Temp. | Humidity | Pressure | Rain* | Wind** | Luminosity | Snow |
|---|---|---|---|---|---|---|---|
| 1777721700 | 24.44° C | 34% | 1017.8 hPa | - | - | - | - |
| 1777719901 | 24.44° C | 33% | 1018 hPa | - | - | - | - |
| 1777718101 | 23.89° C | 34% | 1018.3 hPa | - | - | - | - |
| 1777716301 | 23.89° C | 36% | 1018.7 hPa | - | - | - | - |
| 1777714501 | 22.78° C | 40% | 1018.9 hPa | - | - | - | - |
| 1777712701 | 21.67° C | 41% | 1019.3 hPa | - | - | - | - |
| 1777710901 | 20.56° C | 44% | 1019.6 hPa | - | - | - | - |
| 1777709101 | 19.44° C | 48% | 1019.8 hPa | - | - | - | - |
| 1777707301 | 18.33° C | 51% | 1020 hPa | - | - | - | - |
| 1777705501 | 17.22° C | 54% | 1020.1 hPa | - | - | - | - |
| 1777703701 | 15.56° C | 61% | 1020.3 hPa | - | - | - | - |
| 1777701901 | 14.44° C | 62% | 1020.5 hPa | - | - | - | - |
| 1777700101 | 13.33° C | 64% | 1020.3 hPa | - | - | - | - |
| 1777698301 | 12.78° C | 66% | 1020.6 hPa | - | - | - | - |
| 1777696501 | 12.22° C | 68% | 1020.5 hPa | - | - | - | - |
| 1777694701 | 12.22° C | 68% | 1020.8 hPa | - | - | - | - |
| 1777692901 | 12.22° C | 68% | 1021.1 hPa | - | - | - | - |
| 1777691101 | 12.22° C | 67% | 1021.3 hPa | - | - | - | - |
| 1777689301 | 12.78° C | 65% | 1021.5 hPa | - | - | - | - |
| 1777687501 | 13.33° C | 63% | 1021.9 hPa | - | - | - | - |
| 1777685701 | 13.89° C | 62% | 1022.2 hPa | - | - | - | - |
| 1777683900 | 13.89° C | 61% | 1022.4 hPa | - | - | - | - |
| 1777682101 | 14.44° C | 59% | 1022.7 hPa | - | - | - | - |
| 1777680301 | 15° C | 58% | 1022.8 hPa | - | - | - | - |
| 1777678500 | 15° C | 57% | 1023 hPa | - | - | - | - |
* Rain since midnight (hover to see other rain measurements)
** Current wind speed in m/s (hover to see current wind gust speed)